createdAt,value
2017-09-06T00:02:04.893Z,7.10
2017-09-06T00:04:33.453Z,7.57
2017-09-06T00:07:01.803Z,6.70
2017-09-06T00:09:30.202Z,6.97
2017-09-06T00:11:58.506Z,7.23
2017-09-06T00:14:26.823Z,9.23
2017-09-06T00:16:56.151Z,8.43
2017-09-06T00:19:24.536Z,9.03
2017-09-06T00:21:53.730Z,9.90
2017-09-06T00:24:22.019Z,9.40
2017-09-06T00:26:50.600Z,13.50
2017-09-06T00:29:18.978Z,9.97
2017-09-06T00:31:47.279Z,8.00
2017-09-06T00:34:15.619Z,8.40
2017-09-06T00:36:43.909Z,9.20
2017-09-06T00:39:12.271Z,7.60
2017-09-06T00:41:40.575Z,8.90
2017-09-06T00:44:08.926Z,8.20
2017-09-06T00:46:37.303Z,8.20
2017-09-06T00:49:05.730Z,8.10
2017-09-06T00:51:34.023Z,7.63
2017-09-06T00:54:02.442Z,9.67
2017-09-06T00:56:30.823Z,9.23
2017-09-06T00:58:59.099Z,8.90
2017-09-06T01:01:27.418Z,9.57
2017-09-06T01:03:55.723Z,8.57
2017-09-06T01:06:24.043Z,7.97
2017-09-06T01:08:52.398Z,9.60
2017-09-06T01:11:20.885Z,7.77
2017-09-06T01:13:49.183Z,10.17
2017-09-06T01:16:17.530Z,8.10
2017-09-06T01:18:45.915Z,7.50
2017-09-06T01:21:14.292Z,7.43
2017-09-06T01:23:42.677Z,8.03
2017-09-06T01:26:11.051Z,10.17
2017-09-06T01:28:39.430Z,7.23
2017-09-06T01:31:07.827Z,8.13
2017-09-06T01:33:36.150Z,9.47
2017-09-06T01:36:04.550Z,8.57
2017-09-06T01:38:33.043Z,8.47
2017-09-06T01:41:01.419Z,9.37
2017-09-06T01:43:29.802Z,8.00
2017-09-06T01:45:58.123Z,7.27
2017-09-06T01:48:26.461Z,7.27
2017-09-06T01:50:55.538Z,7.93
2017-09-06T01:53:23.843Z,7.77
2017-09-06T01:55:52.920Z,9.97
2017-09-06T01:58:21.216Z,9.73
2017-09-06T02:00:50.275Z,7.47
2017-09-06T02:03:18.663Z,8.23
2017-09-06T02:05:47.003Z,7.40
2017-09-06T02:08:15.415Z,6.07
2017-09-06T02:10:43.804Z,7.67
2017-09-06T02:13:12.190Z,8.47
2017-09-06T02:15:40.496Z,8.23
2017-09-06T02:18:08.835Z,9.03
2017-09-06T02:20:37.308Z,6.83
2017-09-06T02:23:05.609Z,7.67
2017-09-06T02:25:34.064Z,9.10
2017-09-06T02:28:02.394Z,7.73
2017-09-06T02:30:30.678Z,8.83
2017-09-06T02:32:58.994Z,10.37
2017-09-06T02:35:27.383Z,7.73
2017-09-06T02:37:55.702Z,7.70
2017-09-06T02:40:24.008Z,8.50
2017-09-06T02:42:52.411Z,9.60
2017-09-06T02:45:20.776Z,8.83
2017-09-06T02:47:49.166Z,8.47
2017-09-06T02:50:17.467Z,8.90
2017-09-06T02:52:45.923Z,9.03
2017-09-06T02:55:14.299Z,8.53
2017-09-06T02:57:42.777Z,10.13
2017-09-06T03:00:11.157Z,8.60
2017-09-06T03:02:40.259Z,8.73
2017-09-06T03:05:08.635Z,8.13
2017-09-06T03:07:37.107Z,7.97
2017-09-06T03:10:05.434Z,8.80
2017-09-06T03:12:33.747Z,8.23
2017-09-06T03:15:02.148Z,9.70
2017-09-06T03:17:30.519Z,10.00
2017-09-06T03:19:58.892Z,8.33
2017-09-06T03:22:27.267Z,8.40
2017-09-06T03:24:55.648Z,7.07
2017-09-06T03:27:24.026Z,7.50
2017-09-06T03:29:52.407Z,8.07
2017-09-06T03:32:20.731Z,9.30
2017-09-06T03:34:49.037Z,9.20
2017-09-06T03:37:17.634Z,7.50
2017-09-06T03:39:45.915Z,6.97
2017-09-06T03:42:14.399Z,6.93
2017-09-06T03:44:42.696Z,6.90
2017-09-06T03:47:11.011Z,7.53
2017-09-06T03:49:39.332Z,7.17
2017-09-06T03:52:07.708Z,9.80
2017-09-06T03:54:36.187Z,6.87
2017-09-06T03:57:04.791Z,7.17
2017-09-06T03:59:33.154Z,7.60
2017-09-06T04:02:01.518Z,7.37
2017-09-06T04:04:29.901Z,6.90
2017-09-06T04:06:58.224Z,8.00
2017-09-06T04:09:26.513Z,9.80
2017-09-06T04:11:54.835Z,9.00
2017-09-06T04:14:23.915Z,6.47
2017-09-06T04:16:52.252Z,7.90
2017-09-06T04:19:20.535Z,7.60
2017-09-06T04:21:48.855Z,7.17
2017-09-06T04:24:17.148Z,7.47
2017-09-06T04:26:46.335Z,7.80
2017-09-06T04:29:14.662Z,8.07
2017-09-06T04:31:43.095Z,9.37
2017-09-06T04:34:11.424Z,8.63
2017-09-06T04:36:40.160Z,9.47
2017-09-06T04:39:08.470Z,9.40
2017-09-06T04:41:36.758Z,10.47
2017-09-06T04:44:05.182Z,10.70
2017-09-06T04:46:33.558Z,10.70
2017-09-06T04:49:02.035Z,10.03
2017-09-06T04:51:30.336Z,8.80
2017-09-06T04:53:58.695Z,9.20
2017-09-06T04:56:27.006Z,11.83
2017-09-06T04:58:55.325Z,11.17
2017-09-06T05:01:23.722Z,10.53
2017-09-06T05:03:52.031Z,9.70
2017-09-06T05:06:20.378Z,9.03
2017-09-06T05:08:48.679Z,9.93
2017-09-06T05:11:17.130Z,8.87
2017-09-06T05:13:45.828Z,8.50
2017-09-06T05:16:14.887Z,9.43
2017-09-06T05:18:43.208Z,7.73
2017-09-06T05:21:11.503Z,6.90
2017-09-06T05:23:39.832Z,6.40
2017-09-06T05:26:08.131Z,6.60
2017-09-06T05:28:36.503Z,6.80
2017-09-06T05:31:04.885Z,6.43
2017-09-06T05:33:33.363Z,7.20
2017-09-06T05:36:01.747Z,7.90
2017-09-06T05:38:30.034Z,6.90
2017-09-06T05:40:58.405Z,6.77
2017-09-06T05:43:26.687Z,6.73
2017-09-06T05:45:55.763Z,7.10
2017-09-06T05:48:24.050Z,6.77
2017-09-06T05:50:53.012Z,6.80
2017-09-06T05:53:21.424Z,7.70
2017-09-06T05:55:49.785Z,6.40
2017-09-06T05:58:18.090Z,8.07
2017-09-06T06:00:46.635Z,9.03
2017-09-06T06:03:15.032Z,8.17
2017-09-06T06:05:43.399Z,8.93
2017-09-06T06:08:11.781Z,8.93
2017-09-06T06:10:40.097Z,8.10
2017-09-06T06:13:08.427Z,8.90
2017-09-06T06:15:37.505Z,9.50
2017-09-06T06:18:06.006Z,8.07
2017-09-06T06:20:34.302Z,7.53
2017-09-06T06:23:02.627Z,8.67
2017-09-06T06:25:30.926Z,9.13
2017-09-06T06:27:59.220Z,8.20
2017-09-06T06:30:27.525Z,8.17
2017-09-06T06:32:55.869Z,7.53
2017-09-06T06:35:24.199Z,8.13
2017-09-06T06:37:52.520Z,8.17
2017-09-06T06:40:21.003Z,8.70
2017-09-06T06:42:49.371Z,8.73
2017-09-06T06:45:17.755Z,9.73
2017-09-06T06:47:46.075Z,8.80
2017-09-06T06:50:14.374Z,8.20
2017-09-06T06:52:42.768Z,9.43
2017-09-06T06:55:11.050Z,10.70
2017-09-06T06:57:39.371Z,10.20
2017-09-06T07:00:07.714Z,9.97
2017-09-06T07:02:36.187Z,9.83
2017-09-06T07:05:04.574Z,12.93
2017-09-06T07:07:33.667Z,10.03
2017-09-06T07:10:01.997Z,10.80
2017-09-06T07:12:30.333Z,9.77
2017-09-06T07:14:58.659Z,9.50
2017-09-06T07:17:26.962Z,9.30
2017-09-06T07:19:55.291Z,7.80
2017-09-06T07:22:23.591Z,9.00
2017-09-06T07:24:51.939Z,9.13
2017-09-06T07:27:20.235Z,7.50
2017-09-06T07:29:48.866Z,7.50
2017-09-06T07:32:17.156Z,7.73
2017-09-06T07:34:45.473Z,6.60
2017-09-06T07:37:13.831Z,9.33
2017-09-06T07:39:42.138Z,8.00
2017-09-06T07:42:10.458Z,8.07
2017-09-06T07:44:38.760Z,9.90
2017-09-06T07:47:07.085Z,9.73
2017-09-06T07:49:35.386Z,9.40
2017-09-06T07:52:03.730Z,8.80
2017-09-06T07:54:32.067Z,10.20
2017-09-06T07:57:00.474Z,9.63
2017-09-06T07:59:28.768Z,10.10
2017-09-06T08:01:57.059Z,9.47
2017-09-06T08:04:25.384Z,9.77
2017-09-06T08:06:59.444Z,10.37
2017-09-06T08:09:27.775Z,11.60
2017-09-06T08:11:56.102Z,11.70
2017-09-06T08:14:24.835Z,10.27
2017-09-06T08:16:53.139Z,14.40
2017-09-06T08:19:21.444Z,10.03
2017-09-06T08:21:49.785Z,11.40
2017-09-06T08:24:18.082Z,13.20
2017-09-06T08:26:46.428Z,11.10
2017-09-06T08:29:14.841Z,10.23
2017-09-06T08:31:43.965Z,12.00
2017-09-06T08:34:12.267Z,11.30
2017-09-06T08:36:40.688Z,11.20
2017-09-06T08:39:09.026Z,10.87
2017-09-06T08:41:37.467Z,10.57
2017-09-06T08:44:06.537Z,9.37
2017-09-06T08:46:34.853Z,9.70
2017-09-06T08:49:03.320Z,10.37
2017-09-06T08:51:31.603Z,9.37
2017-09-06T08:53:59.926Z,8.87
2017-09-06T08:56:28.222Z,8.97
2017-09-06T08:58:56.554Z,11.53
2017-09-06T09:01:24.854Z,8.53
2017-09-06T09:03:53.193Z,12.30
2017-09-06T09:06:21.504Z,11.23
2017-09-06T09:08:50.011Z,13.60
2017-09-06T09:11:18.323Z,12.17
2017-09-06T09:13:46.668Z,12.23
2017-09-06T09:16:15.019Z,10.90
2017-09-06T09:18:43.356Z,11.93
2017-09-06T09:21:11.767Z,11.20
2017-09-06T09:23:40.874Z,10.40
2017-09-06T09:26:09.445Z,12.57
2017-09-06T09:28:37.838Z,12.73
2017-09-06T09:31:06.162Z,11.77
2017-09-06T09:33:34.501Z,14.10
2017-09-06T09:36:02.832Z,13.87
2017-09-06T09:38:31.179Z,15.20
2017-09-06T09:40:59.485Z,12.70
2017-09-06T09:43:27.811Z,14.07
2017-09-06T09:45:56.218Z,12.90
2017-09-06T09:48:24.698Z,12.83
2017-09-06T09:50:53.023Z,13.90
2017-09-06T09:53:21.343Z,14.27
2017-09-06T09:55:49.680Z,20.43
2017-09-06T09:58:17.962Z,22.47
2017-09-06T10:00:46.280Z,21.60
2017-09-06T10:03:14.599Z,25.90
2017-09-06T10:05:43.155Z,21.80
2017-09-06T10:08:11.455Z,25.13
2017-09-06T10:10:39.794Z,27.87
2017-09-06T10:13:08.151Z,22.90
2017-09-06T10:15:36.487Z,18.57
2017-09-06T10:18:04.809Z,20.67
2017-09-06T10:20:33.115Z,20.90
2017-09-06T10:23:01.432Z,20.50
2017-09-06T10:25:29.739Z,20.60
2017-09-06T10:27:58.190Z,17.50
2017-09-06T10:30:26.617Z,18.70
2017-09-06T10:32:55.272Z,21.87
2017-09-06T10:35:23.915Z,17.70
2017-09-06T10:37:52.239Z,14.53
2017-09-06T10:40:20.577Z,14.43
2017-09-06T10:42:48.881Z,12.87
2017-09-06T10:45:17.236Z,12.60
2017-09-06T10:47:45.571Z,14.13
2017-09-06T10:50:14.670Z,13.00
2017-09-06T10:52:42.959Z,10.73
2017-09-06T10:55:11.623Z,10.43
2017-09-06T10:57:39.915Z,10.30
2017-09-06T11:00:08.223Z,13.87
2017-09-06T11:02:36.547Z,12.17
2017-09-06T11:05:04.874Z,19.37
2017-09-06T11:07:33.210Z,13.00
2017-09-06T11:10:01.529Z,11.40
2017-09-06T11:12:29.841Z,12.37
2017-09-06T11:14:58.170Z,13.47
2017-09-06T11:17:26.527Z,10.53
2017-09-06T11:19:54.948Z,10.00
2017-09-06T11:22:23.248Z,12.40
2017-09-06T11:24:51.587Z,10.33
2017-09-06T11:27:19.887Z,9.73
2017-09-06T11:29:48.327Z,9.13
2017-09-06T11:32:16.636Z,11.33
2017-09-06T11:34:44.950Z,8.87
2017-09-06T11:37:13.283Z,8.70
2017-09-06T11:39:41.589Z,9.73
2017-09-06T11:42:09.935Z,7.47
2017-09-06T11:44:38.264Z,7.97
2017-09-06T11:47:06.571Z,8.50
2017-09-06T11:49:34.869Z,9.37
2017-09-06T11:52:03.396Z,11.70
2017-09-06T11:54:32.465Z,10.77
2017-09-06T11:57:00.786Z,10.20
2017-09-06T11:59:29.106Z,9.13
2017-09-06T12:01:57.402Z,10.47
2017-09-06T12:04:26.610Z,10.10
2017-09-06T12:06:54.939Z,10.27
2017-09-06T12:09:23.265Z,9.73
2017-09-06T12:11:51.586Z,8.67
2017-09-06T12:14:19.889Z,7.10
2017-09-06T12:16:48.189Z,6.63
2017-09-06T12:19:16.480Z,5.93
2017-09-06T12:21:44.803Z,5.27
2017-09-06T12:24:13.091Z,6.00
2017-09-06T12:26:41.403Z,7.77
2017-09-06T12:29:09.709Z,5.40
2017-09-06T12:31:38.259Z,5.20
2017-09-06T12:34:06.559Z,5.47
2017-09-06T12:36:34.888Z,4.87
2017-09-06T12:39:03.212Z,4.80
2017-09-06T12:41:31.653Z,5.30
2017-09-06T12:43:59.961Z,5.23
2017-09-06T12:46:28.256Z,4.40
2017-09-06T12:48:56.587Z,5.80
2017-09-06T12:51:24.886Z,5.30
2017-09-06T12:53:53.199Z,4.50
2017-09-06T12:56:21.486Z,3.00
2017-09-06T12:58:50.113Z,4.37
2017-09-06T13:01:18.440Z,4.10
2017-09-06T13:03:47.543Z,2.97
2017-09-06T13:06:15.887Z,4.87
2017-09-06T13:08:44.208Z,4.30
2017-09-06T13:11:12.535Z,3.57
2017-09-06T13:13:40.835Z,4.17
2017-09-06T13:16:09.271Z,5.37
2017-09-06T13:18:37.571Z,6.17
2017-09-06T13:21:05.895Z,4.73
2017-09-06T13:23:34.197Z,3.33
2017-09-06T13:26:02.620Z,3.87
2017-09-06T13:28:30.922Z,2.67
2017-09-06T13:30:59.247Z,3.67
2017-09-06T13:33:27.574Z,4.30
2017-09-06T13:35:55.901Z,4.20
2017-09-06T13:38:24.250Z,5.03
2017-09-06T13:40:52.535Z,3.57
2017-09-06T13:43:20.851Z,2.57
2017-09-06T13:45:49.148Z,2.83
2017-09-06T13:48:17.475Z,3.23
2017-09-06T13:50:45.801Z,3.97
2017-09-06T13:53:14.310Z,3.77
2017-09-06T13:55:42.629Z,3.50
2017-09-06T13:58:10.910Z,3.90
2017-09-06T14:00:39.207Z,4.17
2017-09-06T14:03:07.507Z,3.37
2017-09-06T14:05:35.822Z,3.87
2017-09-06T14:08:04.123Z,3.90
2017-09-06T14:10:32.539Z,3.40
2017-09-06T14:13:00.941Z,4.00
2017-09-06T14:15:29.230Z,4.30
2017-09-06T14:17:57.552Z,4.70
2017-09-06T14:20:25.852Z,5.40
2017-09-06T14:22:54.162Z,5.53
2017-09-06T14:25:22.469Z,6.60
2017-09-06T14:27:50.767Z,4.67
2017-09-06T14:30:19.058Z,5.13
2017-09-06T14:32:47.466Z,7.10
2017-09-06T14:35:16.514Z,7.27
2017-09-06T14:37:44.824Z,4.73
2017-09-06T14:40:13.157Z,6.70
2017-09-06T14:42:41.442Z,6.53
2017-09-06T14:45:09.766Z,4.83
2017-09-06T14:47:38.059Z,6.23
2017-09-06T14:50:06.474Z,6.33
2017-09-06T14:52:34.753Z,4.03
2017-09-06T14:55:03.042Z,6.03
2017-09-06T14:57:31.363Z,6.67
2017-09-06T14:59:59.670Z,4.70
2017-09-06T15:02:27.988Z,5.57
2017-09-06T15:04:56.288Z,4.40
2017-09-06T15:07:24.614Z,5.93
2017-09-06T15:09:52.917Z,4.97
2017-09-06T15:12:21.245Z,3.90
2017-09-06T15:14:49.567Z,3.97
2017-09-06T15:17:18.013Z,4.67
2017-09-06T15:19:46.315Z,4.70
2017-09-06T15:22:14.610Z,9.30
2017-09-06T15:24:42.946Z,8.87
2017-09-06T15:27:12.028Z,6.83
2017-09-06T15:29:40.353Z,4.67
2017-09-06T15:32:08.638Z,4.63
2017-09-06T15:34:37.298Z,4.93
2017-09-06T15:37:05.598Z,6.40
2017-09-06T15:39:33.910Z,10.50
2017-09-06T15:42:02.252Z,6.10
2017-09-06T15:44:30.596Z,6.47
2017-09-06T15:46:58.911Z,5.30
2017-09-06T15:49:27.194Z,8.73
2017-09-06T15:51:55.520Z,7.53
2017-09-06T15:54:24.606Z,5.30
2017-09-06T15:56:52.941Z,6.63
2017-09-06T15:59:21.266Z,7.30
2017-09-06T16:01:49.560Z,5.70
2017-09-06T16:04:17.883Z,4.90
2017-09-06T16:06:46.193Z,6.87
2017-09-06T16:09:14.699Z,4.90
2017-09-06T16:11:42.975Z,4.87
2017-09-06T16:14:11.275Z,5.43
2017-09-06T16:16:39.619Z,4.70
2017-09-06T16:19:07.898Z,5.73
2017-09-06T16:21:36.226Z,6.43
2017-09-06T16:24:04.535Z,4.60
2017-09-06T16:26:32.943Z,5.17
2017-09-06T16:29:01.206Z,4.77
2017-09-06T16:31:29.539Z,5.70
2017-09-06T16:33:57.890Z,4.50
2017-09-06T16:36:26.203Z,5.00
2017-09-06T16:38:54.494Z,5.03
2017-09-06T16:41:22.923Z,4.70
2017-09-06T16:43:51.226Z,4.57
2017-09-06T16:46:19.538Z,4.53
2017-09-06T16:48:47.932Z,5.40
2017-09-06T16:51:16.314Z,6.73
2017-09-06T16:53:44.791Z,7.80
2017-09-06T16:56:13.088Z,6.97
2017-09-06T16:58:41.395Z,7.40
2017-09-06T17:01:09.690Z,7.37
2017-09-06T17:03:38.143Z,6.07
2017-09-06T17:06:06.435Z,7.37
2017-09-06T17:08:34.734Z,8.60
2017-09-06T17:11:03.051Z,8.40
2017-09-06T17:13:31.358Z,6.90
2017-09-06T17:15:59.684Z,7.20
2017-09-06T17:18:27.982Z,6.73
2017-09-06T17:20:56.327Z,6.87
2017-09-06T17:23:24.652Z,7.00
2017-09-06T17:25:53.002Z,6.30
2017-09-06T17:28:21.584Z,5.67
2017-09-06T17:30:49.987Z,8.00
2017-09-06T17:33:18.298Z,6.00
2017-09-06T17:35:46.590Z,7.80
2017-09-06T17:38:14.908Z,8.20
2017-09-06T17:40:43.210Z,10.03
2017-09-06T17:43:11.546Z,7.77
2017-09-06T17:45:39.868Z,7.20
2017-09-06T17:48:08.366Z,6.90
2017-09-06T17:50:36.680Z,7.10
2017-09-06T17:53:05.000Z,5.43
2017-09-06T17:55:33.430Z,8.17
2017-09-06T17:58:01.724Z,8.07
2017-09-06T18:00:30.019Z,6.97
2017-09-06T18:02:58.450Z,5.90
2017-09-06T18:05:26.755Z,6.87
2017-09-06T18:07:55.063Z,6.33
2017-09-06T18:10:23.380Z,6.40
2017-09-06T18:12:51.714Z,4.87
2017-09-06T18:15:20.031Z,5.83
2017-09-06T18:17:48.412Z,7.77
2017-09-06T18:20:16.743Z,6.40
2017-09-06T18:22:45.167Z,6.53
2017-09-06T18:25:14.260Z,9.83
2017-09-06T18:27:43.518Z,7.73
2017-09-06T18:30:11.839Z,7.37
2017-09-06T18:32:40.130Z,6.70
2017-09-06T18:35:08.491Z,6.97
2017-09-06T18:37:36.866Z,6.77
2017-09-06T18:40:06.986Z,6.70
2017-09-06T18:42:35.303Z,6.13
2017-09-06T18:45:03.619Z,6.07
2017-09-06T18:47:31.915Z,8.03
2017-09-06T18:50:00.392Z,7.47
2017-09-06T18:52:28.762Z,6.40
2017-09-06T18:54:57.094Z,6.57
2017-09-06T18:57:25.522Z,7.00
2017-09-06T18:59:53.822Z,6.23
2017-09-06T19:02:22.142Z,8.20
2017-09-06T19:04:50.471Z,7.77
2017-09-06T19:07:18.814Z,7.47
2017-09-06T19:09:47.345Z,7.20
2017-09-06T19:12:15.675Z,7.30
2017-09-06T19:14:44.399Z,7.10
2017-09-06T19:17:12.723Z,6.37
2017-09-06T19:19:41.023Z,5.77
2017-09-06T19:22:09.449Z,6.63
2017-09-06T19:24:37.814Z,5.30
2017-09-06T19:27:06.119Z,4.80
2017-09-06T19:29:34.463Z,6.03
2017-09-06T19:32:02.790Z,5.27
2017-09-06T19:34:31.284Z,5.40
2017-09-06T19:36:59.674Z,5.47
2017-09-06T19:39:27.967Z,5.67
2017-09-06T19:41:56.558Z,4.67
2017-09-06T19:44:24.843Z,4.40
2017-09-06T19:46:53.167Z,5.83
2017-09-06T19:49:21.568Z,4.90
2017-09-06T19:51:50.068Z,5.23
2017-09-06T19:54:18.450Z,7.47
2017-09-06T19:56:46.775Z,8.20
2017-09-06T19:59:15.127Z,7.40
2017-09-06T20:01:43.471Z,5.43
2017-09-06T20:04:11.853Z,7.73
2017-09-06T20:06:40.143Z,6.20
2017-09-06T20:09:08.499Z,6.87
2017-09-06T20:11:36.798Z,7.27
2017-09-06T20:14:05.127Z,7.67
2017-09-06T20:16:33.542Z,6.53
2017-09-06T20:19:02.103Z,5.60
2017-09-06T20:21:30.895Z,6.87
2017-09-06T20:23:59.270Z,5.00
2017-09-06T20:26:27.586Z,6.03
2017-09-06T20:28:55.935Z,4.20
2017-09-06T20:31:24.421Z,4.07
2017-09-06T20:33:53.736Z,5.10
2017-09-06T20:36:22.062Z,4.50
2017-09-06T20:38:50.355Z,6.23
2017-09-06T20:41:18.838Z,5.50
2017-09-06T20:43:47.121Z,4.43
2017-09-06T20:46:15.902Z,6.30
2017-09-06T20:48:44.231Z,5.23
2017-09-06T20:51:12.533Z,5.60
2017-09-06T20:53:40.854Z,7.83
2017-09-06T20:56:09.311Z,5.80
2017-09-06T20:58:38.099Z,5.63
2017-09-06T21:01:06.400Z,5.03
2017-09-06T21:03:34.702Z,6.13
2017-09-06T21:06:03.030Z,7.37
2017-09-06T21:08:31.328Z,4.63
2017-09-06T21:10:59.823Z,5.40
2017-09-06T21:13:28.131Z,6.50
2017-09-06T21:15:56.416Z,6.33
2017-09-06T21:18:24.840Z,6.03
2017-09-06T21:20:53.142Z,10.80
2017-09-06T21:23:21.459Z,6.07
2017-09-06T21:25:49.787Z,5.50
2017-09-06T21:28:18.083Z,5.37
2017-09-06T21:30:46.398Z,7.03
2017-09-06T21:33:14.699Z,6.00
2017-09-06T21:35:43.146Z,5.50
2017-09-06T21:38:11.427Z,7.33
2017-09-06T21:40:39.757Z,6.13
2017-09-06T21:43:08.086Z,8.83
2017-09-06T21:45:36.369Z,9.43
2017-09-06T21:48:04.699Z,9.10
2017-09-06T21:50:33.011Z,9.33
2017-09-06T21:53:01.493Z,6.63
2017-09-06T21:55:29.816Z,8.07
2017-09-06T21:57:58.155Z,7.63
2017-09-06T22:00:26.523Z,7.20
2017-09-06T22:02:54.832Z,8.50
2017-09-06T22:05:23.171Z,5.73
2017-09-06T22:07:51.478Z,7.00
2017-09-06T22:10:19.774Z,7.77
2017-09-06T22:12:48.102Z,8.27
2017-09-06T22:15:16.694Z,8.53
2017-09-06T22:17:45.000Z,5.87
2017-09-06T22:20:13.298Z,5.90
2017-09-06T22:22:41.715Z,7.70
2017-09-06T22:25:10.092Z,8.87
2017-09-06T22:27:38.409Z,8.23
2017-09-06T22:30:06.699Z,6.97
2017-09-06T22:32:35.332Z,8.73
2017-09-06T22:35:03.607Z,6.90
2017-09-06T22:37:31.933Z,9.33
2017-09-06T22:40:00.372Z,8.57
2017-09-06T22:42:29.459Z,13.73
2017-09-06T22:44:57.782Z,7.83
2017-09-06T22:47:26.104Z,7.87
2017-09-06T22:49:54.422Z,12.70
2017-09-06T22:52:22.730Z,8.57
2017-09-06T22:54:51.259Z,8.63
2017-09-06T22:57:19.565Z,7.40
2017-09-06T22:59:47.906Z,12.30
2017-09-06T23:02:16.230Z,9.10
2017-09-06T23:04:44.532Z,9.17
2017-09-06T23:07:12.857Z,9.50
2017-09-06T23:09:41.223Z,10.30
2017-09-06T23:12:09.691Z,8.00
2017-09-06T23:14:38.006Z,7.07
2017-09-06T23:17:06.346Z,8.10
2017-09-06T23:19:34.667Z,7.40
2017-09-06T23:22:03.000Z,8.17
2017-09-06T23:24:31.379Z,6.90
2017-09-06T23:27:00.478Z,7.77
2017-09-06T23:29:28.847Z,8.83
2017-09-06T23:31:57.399Z,11.30
2017-09-06T23:34:25.723Z,5.50
2017-09-06T23:36:54.077Z,6.43
2017-09-06T23:39:22.403Z,6.83
2017-09-06T23:41:51.181Z,6.47
2017-09-06T23:44:19.637Z,10.63
2017-09-06T23:46:48.015Z,6.43
2017-09-06T23:49:16.299Z,5.77
2017-09-06T23:51:44.664Z,7.00
2017-09-06T23:54:13.045Z,7.60
2017-09-06T23:56:41.415Z,11.37
2017-09-06T23:59:09.813Z,12.43
